sensor_id;sensor_type;location;lat;lon;timestamp;temperature;humidity
9223;DHT22;7557;51.698;3.942;2022-10-23T00:00:18;15.80;99.90
9223;DHT22;7557;51.698;3.942;2022-10-23T00:02:51;15.80;99.90
9223;DHT22;7557;51.698;3.942;2022-10-23T00:05:19;15.80;99.90
9223;DHT22;7557;51.698;3.942;2022-10-23T00:07:49;15.80;99.90
9223;DHT22;7557;51.698;3.942;2022-10-23T00:10:17;15.80;99.90
9223;DHT22;7557;51.698;3.942;2022-10-23T00:12:47;15.90;99.90
9223;DHT22;7557;51.698;3.942;2022-10-23T00:15:16;15.90;99.90
9223;DHT22;7557;51.698;3.942;2022-10-23T00:17:45;15.90;99.90
9223;DHT22;7557;51.698;3.942;2022-10-23T00:20:14;15.80;99.90
9223;DHT22;7557;51.698;3.942;2022-10-23T00:22:41;15.70;99.90
9223;DHT22;7557;51.698;3.942;2022-10-23T00:25:09;15.70;99.90
9223;DHT22;7557;51.698;3.942;2022-10-23T00:27:37;15.70;99.90
9223;DHT22;7557;51.698;3.942;2022-10-23T00:30:07;15.70;99.90
9223;DHT22;7557;51.698;3.942;2022-10-23T00:32:34;15.70;99.90
9223;DHT22;7557;51.698;3.942;2022-10-23T00:35:01;15.70;99.90
9223;DHT22;7557;51.698;3.942;2022-10-23T00:37:28;15.70;99.90
9223;DHT22;7557;51.698;3.942;2022-10-23T00:39:56;15.70;99.90
9223;DHT22;7557;51.698;3.942;2022-10-23T00:42:23;15.70;99.90
9223;DHT22;7557;51.698;3.942;2022-10-23T00:45:14;15.70;99.90
9223;DHT22;7557;51.698;3.942;2022-10-23T00:47:42;15.60;99.90
9223;DHT22;7557;51.698;3.942;2022-10-23T00:50:10;15.50;99.90
9223;DHT22;7557;51.698;3.942;2022-10-23T00:55:59;15.50;99.90
9223;DHT22;7557;51.698;3.942;2022-10-23T00:58:27;15.30;99.90
9223;DHT22;7557;51.698;3.942;2022-10-23T01:00:57;15.30;99.90
9223;DHT22;7557;51.698;3.942;2022-10-23T01:03:26;15.20;99.90
9223;DHT22;7557;51.698;3.942;2022-10-23T01:06:01;15.20;99.90
9223;DHT22;7557;51.698;3.942;2022-10-23T01:08:34;15.10;99.90
9223;DHT22;7557;51.698;3.942;2022-10-23T01:11:09;15.10;99.90
9223;DHT22;7557;51.698;3.942;2022-10-23T01:13:43;15.10;99.90
9223;DHT22;7557;51.698;3.942;2022-10-23T01:16:17;15.10;99.90
9223;DHT22;7557;51.698;3.942;2022-10-23T01:18:50;15.20;99.90
9223;DHT22;7557;51.698;3.942;2022-10-23T01:21:23;15.20;99.90
9223;DHT22;7557;51.698;3.942;2022-10-23T01:24:14;15.20;99.90
9223;DHT22;7557;51.698;3.942;2022-10-23T01:26:54;15.30;99.90
9223;DHT22;7557;51.698;3.942;2022-10-23T01:29:30;15.30;99.90
9223;DHT22;7557;51.698;3.942;2022-10-23T01:32:04;15.30;99.90
9223;DHT22;7557;51.698;3.942;2022-10-23T01:34:39;15.40;99.90
9223;DHT22;7557;51.698;3.942;2022-10-23T01:37:11;15.40;99.90
9223;DHT22;7557;51.698;3.942;2022-10-23T01:39:45;15.50;99.90
9223;DHT22;7557;51.698;3.942;2022-10-23T01:42:16;15.50;99.90
9223;DHT22;7557;51.698;3.942;2022-10-23T01:44:49;15.50;99.90
9223;DHT22;7557;51.698;3.942;2022-10-23T01:47:19;15.40;99.90
9223;DHT22;7557;51.698;3.942;2022-10-23T01:49:50;15.40;99.90
9223;DHT22;7557;51.698;3.942;2022-10-23T01:52:19;15.30;99.90
9223;DHT22;7557;51.698;3.942;2022-10-23T01:54:48;15.30;99.90
9223;DHT22;7557;51.698;3.942;2022-10-23T01:57:18;15.30;99.90
9223;DHT22;7557;51.698;3.942;2022-10-23T01:59:50;15.30;99.90
9223;DHT22;7557;51.698;3.942;2022-10-23T02:02:19;15.30;99.90
9223;DHT22;7557;51.698;3.942;2022-10-23T02:04:52;15.30;99.90
9223;DHT22;7557;51.698;3.942;2022-10-23T02:07:22;15.40;99.90
9223;DHT22;7557;51.698;3.942;2022-10-23T02:09:49;15.40;99.90
9223;DHT22;7557;51.698;3.942;2022-10-23T02:12:24;15.40;99.90
9223;DHT22;7557;51.698;3.942;2022-10-23T02:14:59;15.30;99.90
9223;DHT22;7557;51.698;3.942;2022-10-23T02:17:36;15.30;99.90
9223;DHT22;7557;51.698;3.942;2022-10-23T02:20:18;15.30;99.90
9223;DHT22;7557;51.698;3.942;2022-10-23T02:22:54;15.30;99.90
9223;DHT22;7557;51.698;3.942;2022-10-23T02:25:29;15.30;99.90
9223;DHT22;7557;51.698;3.942;2022-10-23T02:28:04;15.30;99.90
9223;DHT22;7557;51.698;3.942;2022-10-23T02:30:36;15.40;99.90
9223;DHT22;7557;51.698;3.942;2022-10-23T02:33:07;15.30;99.90
9223;DHT22;7557;51.698;3.942;2022-10-23T02:35:35;15.40;99.90
9223;DHT22;7557;51.698;3.942;2022-10-23T02:38:02;15.30;99.90
9223;DHT22;7557;51.698;3.942;2022-10-23T02:40:33;15.30;99.90
9223;DHT22;7557;51.698;3.942;2022-10-23T02:43:07;15.40;99.90
9223;DHT22;7557;51.698;3.942;2022-10-23T02:45:45;15.40;99.90
9223;DHT22;7557;51.698;3.942;2022-10-23T02:48:18;15.30;99.90
9223;DHT22;7557;51.698;3.942;2022-10-23T02:50:52;15.30;99.90
9223;DHT22;7557;51.698;3.942;2022-10-23T02:53:25;15.30;99.90
9223;DHT22;7557;51.698;3.942;2022-10-23T02:56:02;15.30;99.90
9223;DHT22;7557;51.698;3.942;2022-10-23T02:58:35;15.40;99.90
9223;DHT22;7557;51.698;3.942;2022-10-23T03:01:09;15.40;99.90
9223;DHT22;7557;51.698;3.942;2022-10-23T03:03:40;15.40;99.90
9223;DHT22;7557;51.698;3.942;2022-10-23T03:06:08;15.40;99.90
9223;DHT22;7557;51.698;3.942;2022-10-23T03:08:42;15.30;99.90
9223;DHT22;7557;51.698;3.942;2022-10-23T03:11:10;15.30;99.90
9223;DHT22;7557;51.698;3.942;2022-10-23T03:13:37;15.20;99.90
9223;DHT22;7557;51.698;3.942;2022-10-23T03:16:06;15.10;99.90
9223;DHT22;7557;51.698;3.942;2022-10-23T03:18:33;15.10;99.90
9223;DHT22;7557;51.698;3.942;2022-10-23T03:21:00;15.10;99.90
9223;DHT22;7557;51.698;3.942;2022-10-23T03:23:27;15.20;99.90
9223;DHT22;7557;51.698;3.942;2022-10-23T03:25:55;15.20;99.90
9223;DHT22;7557;51.698;3.942;2022-10-23T03:28:22;15.20;99.90
9223;DHT22;7557;51.698;3.942;2022-10-23T03:30:49;15.20;99.90
9223;DHT22;7557;51.698;3.942;2022-10-23T03:33:18;15.10;99.90
9223;DHT22;7557;51.698;3.942;2022-10-23T03:35:47;15.10;99.90
9223;DHT22;7557;51.698;3.942;2022-10-23T03:38:14;15.00;99.90
9223;DHT22;7557;51.698;3.942;2022-10-23T03:40:41;15.00;99.90
9223;DHT22;7557;51.698;3.942;2022-10-23T03:43:08;14.90;99.90
9223;DHT22;7557;51.698;3.942;2022-10-23T03:45:36;14.80;99.90
9223;DHT22;7557;51.698;3.942;2022-10-23T03:48:03;14.70;99.90
9223;DHT22;7557;51.698;3.942;2022-10-23T03:50:32;14.70;99.90
9223;DHT22;7557;51.698;3.942;2022-10-23T03:52:59;14.60;99.90
9223;DHT22;7557;51.698;3.942;2022-10-23T03:55:27;14.60;99.90
9223;DHT22;7557;51.698;3.942;2022-10-23T03:57:54;14.60;99.90
9223;DHT22;7557;51.698;3.942;2022-10-23T04:00:22;14.60;99.90
9223;DHT22;7557;51.698;3.942;2022-10-23T04:02:49;14.60;99.90
9223;DHT22;7557;51.698;3.942;2022-10-23T04:05:16;14.60;99.90
9223;DHT22;7557;51.698;3.942;2022-10-23T04:07:45;14.60;99.90
9223;DHT22;7557;51.698;3.942;2022-10-23T04:10:12;14.60;99.90
9223;DHT22;7557;51.698;3.942;2022-10-23T04:12:39;14.50;99.90
9223;DHT22;7557;51.698;3.942;2022-10-23T04:15:07;14.50;99.90
9223;DHT22;7557;51.698;3.942;2022-10-23T04:17:34;14.50;99.90
9223;DHT22;7557;51.698;3.942;2022-10-23T04:20:01;14.50;99.90
9223;DHT22;7557;51.698;3.942;2022-10-23T04:22:28;14.50;99.90
9223;DHT22;7557;51.698;3.942;2022-10-23T04:24:57;14.50;99.90
9223;DHT22;7557;51.698;3.942;2022-10-23T04:27:24;14.50;99.90
9223;DHT22;7557;51.698;3.942;2022-10-23T04:29:51;14.50;99.90
9223;DHT22;7557;51.698;3.942;2022-10-23T04:32:18;14.50;99.90
9223;DHT22;7557;51.698;3.942;2022-10-23T04:34:45;14.50;99.90
9223;DHT22;7557;51.698;3.942;2022-10-23T04:37:12;14.40;99.90
9223;DHT22;7557;51.698;3.942;2022-10-23T04:39:40;14.40;99.90
9223;DHT22;7557;51.698;3.942;2022-10-23T04:42:08;14.40;99.90
9223;DHT22;7557;51.698;3.942;2022-10-23T04:44:35;14.40;99.90
9223;DHT22;7557;51.698;3.942;2022-10-23T04:47:02;14.40;99.90
9223;DHT22;7557;51.698;3.942;2022-10-23T04:49:30;14.40;99.90
9223;DHT22;7557;51.698;3.942;2022-10-23T04:51:57;14.40;99.90
9223;DHT22;7557;51.698;3.942;2022-10-23T04:54:24;14.40;99.90
9223;DHT22;7557;51.698;3.942;2022-10-23T04:56:51;14.40;99.90
9223;DHT22;7557;51.698;3.942;2022-10-23T04:59:20;14.50;99.90
9223;DHT22;7557;51.698;3.942;2022-10-23T05:01:47;14.60;99.90
9223;DHT22;7557;51.698;3.942;2022-10-23T05:04:14;14.70;99.90
9223;DHT22;7557;51.698;3.942;2022-10-23T05:06:41;14.70;99.90
9223;DHT22;7557;51.698;3.942;2022-10-23T05:09:08;14.60;99.90
9223;DHT22;7557;51.698;3.942;2022-10-23T05:11:35;14.50;99.90
9223;DHT22;7557;51.698;3.942;2022-10-23T05:14:02;14.50;99.90
9223;DHT22;7557;51.698;3.942;2022-10-23T05:16:36;14.40;99.90
9223;DHT22;7557;51.698;3.942;2022-10-23T05:19:04;14.30;99.90
9223;DHT22;7557;51.698;3.942;2022-10-23T05:21:35;14.30;99.90
9223;DHT22;7557;51.698;3.942;2022-10-23T05:24:06;14.30;99.90
9223;DHT22;7557;51.698;3.942;2022-10-23T05:26:34;14.30;99.90
9223;DHT22;7557;51.698;3.942;2022-10-23T05:29:01;14.30;99.90
9223;DHT22;7557;51.698;3.942;2022-10-23T05:31:29;14.40;99.90
9223;DHT22;7557;51.698;3.942;2022-10-23T05:33:58;14.40;99.90
9223;DHT22;7557;51.698;3.942;2022-10-23T05:36:25;14.50;99.90
9223;DHT22;7557;51.698;3.942;2022-10-23T05:38:53;14.50;99.90
9223;DHT22;7557;51.698;3.942;2022-10-23T05:41:20;14.50;99.90
9223;DHT22;7557;51.698;3.942;2022-10-23T05:43:47;14.50;99.90
9223;DHT22;7557;51.698;3.942;2022-10-23T05:46:14;14.50;99.90
9223;DHT22;7557;51.698;3.942;2022-10-23T05:48:42;14.50;99.90
9223;DHT22;7557;51.698;3.942;2022-10-23T05:51:11;14.50;99.90
9223;DHT22;7557;51.698;3.942;2022-10-23T05:53:43;14.50;99.90
9223;DHT22;7557;51.698;3.942;2022-10-23T05:56:10;14.50;99.90
9223;DHT22;7557;51.698;3.942;2022-10-23T05:58:37;14.40;99.90
9223;DHT22;7557;51.698;3.942;2022-10-23T06:01:06;14.40;99.90
9223;DHT22;7557;51.698;3.942;2022-10-23T06:03:34;14.40;99.90
9223;DHT22;7557;51.698;3.942;2022-10-23T06:06:01;14.40;99.90
9223;DHT22;7557;51.698;3.942;2022-10-23T06:08:30;14.50;99.90
9223;DHT22;7557;51.698;3.942;2022-10-23T06:11:03;14.50;99.90
9223;DHT22;7557;51.698;3.942;2022-10-23T06:13:30;14.60;99.90
9223;DHT22;7557;51.698;3.942;2022-10-23T06:15:57;14.60;99.90
9223;DHT22;7557;51.698;3.942;2022-10-23T06:18:24;14.60;99.90
9223;DHT22;7557;51.698;3.942;2022-10-23T06:20:51;14.60;99.90
9223;DHT22;7557;51.698;3.942;2022-10-23T06:23:18;14.50;99.90
9223;DHT22;7557;51.698;3.942;2022-10-23T06:25:51;14.50;99.90
9223;DHT22;7557;51.698;3.942;2022-10-23T06:28:20;14.50;99.90
9223;DHT22;7557;51.698;3.942;2022-10-23T06:30:47;14.50;99.90
9223;DHT22;7557;51.698;3.942;2022-10-23T06:33:14;14.50;99.90
9223;DHT22;7557;51.698;3.942;2022-10-23T06:35:41;14.50;99.90
9223;DHT22;7557;51.698;3.942;2022-10-23T06:38:08;14.50;99.90
9223;DHT22;7557;51.698;3.942;2022-10-23T06:40:36;14.50;99.90
9223;DHT22;7557;51.698;3.942;2022-10-23T06:43:05;14.60;99.90
9223;DHT22;7557;51.698;3.942;2022-10-23T06:45:33;14.60;99.90
9223;DHT22;7557;51.698;3.942;2022-10-23T06:48:00;14.60;99.90
9223;DHT22;7557;51.698;3.942;2022-10-23T06:50:28;14.60;99.90
9223;DHT22;7557;51.698;3.942;2022-10-23T06:52:56;14.60;99.90
9223;DHT22;7557;51.698;3.942;2022-10-23T06:55:23;14.70;99.90
9223;DHT22;7557;51.698;3.942;2022-10-23T06:57:50;14.70;99.90
9223;DHT22;7557;51.698;3.942;2022-10-23T07:00:19;14.70;99.90
9223;DHT22;7557;51.698;3.942;2022-10-23T07:02:47;14.70;99.90
9223;DHT22;7557;51.698;3.942;2022-10-23T07:05:14;14.70;99.90
9223;DHT22;7557;51.698;3.942;2022-10-23T07:07:45;14.60;99.90
9223;DHT22;7557;51.698;3.942;2022-10-23T07:10:12;14.60;99.90
9223;DHT22;7557;51.698;3.942;2022-10-23T07:12:39;14.60;99.90
9223;DHT22;7557;51.698;3.942;2022-10-23T07:15:07;14.60;99.90
9223;DHT22;7557;51.698;3.942;2022-10-23T07:17:36;14.60;99.90
9223;DHT22;7557;51.698;3.942;2022-10-23T07:20:04;14.60;99.90
9223;DHT22;7557;51.698;3.942;2022-10-23T07:22:31;14.60;99.90
9223;DHT22;7557;51.698;3.942;2022-10-23T07:24:58;14.60;99.90
9223;DHT22;7557;51.698;3.942;2022-10-23T07:27:25;14.70;99.90
9223;DHT22;7557;51.698;3.942;2022-10-23T07:29:52;14.70;99.90
9223;DHT22;7557;51.698;3.942;2022-10-23T07:32:19;14.70;99.90
9223;DHT22;7557;51.698;3.942;2022-10-23T07:34:49;14.70;99.90
9223;DHT22;7557;51.698;3.942;2022-10-23T07:37:17;14.70;99.90
9223;DHT22;7557;51.698;3.942;2022-10-23T07:39:44;14.70;99.90
9223;DHT22;7557;51.698;3.942;2022-10-23T07:42:11;14.70;99.90
9223;DHT22;7557;51.698;3.942;2022-10-23T07:44:38;14.70;99.90
9223;DHT22;7557;51.698;3.942;2022-10-23T07:47:05;14.80;99.90
9223;DHT22;7557;51.698;3.942;2022-10-23T07:49:32;14.80;99.90
9223;DHT22;7557;51.698;3.942;2022-10-23T07:52:00;14.80;99.90
9223;DHT22;7557;51.698;3.942;2022-10-23T07:54:28;14.80;99.90
9223;DHT22;7557;51.698;3.942;2022-10-23T07:56:55;14.80;99.90
9223;DHT22;7557;51.698;3.942;2022-10-23T07:59:22;14.80;99.90
9223;DHT22;7557;51.698;3.942;2022-10-23T08:01:49;14.80;99.90
9223;DHT22;7557;51.698;3.942;2022-10-23T08:04:17;14.80;99.90
9223;DHT22;7557;51.698;3.942;2022-10-23T08:06:45;14.80;99.90
9223;DHT22;7557;51.698;3.942;2022-10-23T08:09:13;14.80;99.90
9223;DHT22;7557;51.698;3.942;2022-10-23T08:11:40;14.80;99.90
9223;DHT22;7557;51.698;3.942;2022-10-23T08:14:08;14.80;99.90
9223;DHT22;7557;51.698;3.942;2022-10-23T08:16:37;14.80;99.90
9223;DHT22;7557;51.698;3.942;2022-10-23T08:19:06;14.90;99.90
9223;DHT22;7557;51.698;3.942;2022-10-23T08:21:33;14.90;99.90
9223;DHT22;7557;51.698;3.942;2022-10-23T08:24:00;14.90;99.90
9223;DHT22;7557;51.698;3.942;2022-10-23T08:26:29;14.90;99.90
9223;DHT22;7557;51.698;3.942;2022-10-23T08:28:57;15.00;99.90
9223;DHT22;7557;51.698;3.942;2022-10-23T08:31:25;15.00;99.90
9223;DHT22;7557;51.698;3.942;2022-10-23T08:33:52;15.00;99.90
9223;DHT22;7557;51.698;3.942;2022-10-23T08:36:21;15.10;99.90
9223;DHT22;7557;51.698;3.942;2022-10-23T08:38:49;15.10;99.90
9223;DHT22;7557;51.698;3.942;2022-10-23T08:41:23;15.20;99.90
9223;DHT22;7557;51.698;3.942;2022-10-23T08:43:55;15.30;99.90
9223;DHT22;7557;51.698;3.942;2022-10-23T08:46:28;15.30;99.90
9223;DHT22;7557;51.698;3.942;2022-10-23T08:49:05;15.30;99.90
9223;DHT22;7557;51.698;3.942;2022-10-23T08:51:36;15.40;99.90
9223;DHT22;7557;51.698;3.942;2022-10-23T08:54:12;15.40;99.90
9223;DHT22;7557;51.698;3.942;2022-10-23T08:56:41;15.40;99.90
9223;DHT22;7557;51.698;3.942;2022-10-23T08:59:16;15.40;99.90
9223;DHT22;7557;51.698;3.942;2022-10-23T09:01:51;15.40;99.90
9223;DHT22;7557;51.698;3.942;2022-10-23T09:04:20;15.50;99.90
9223;DHT22;7557;51.698;3.942;2022-10-23T09:06:53;15.50;99.90
9223;DHT22;7557;51.698;3.942;2022-10-23T09:12:18;15.60;99.90
9223;DHT22;7557;51.698;3.942;2022-10-23T09:14:55;15.60;99.90
9223;DHT22;7557;51.698;3.942;2022-10-23T09:17:26;15.60;99.90
9223;DHT22;7557;51.698;3.942;2022-10-23T09:19:58;15.60;99.90
9223;DHT22;7557;51.698;3.942;2022-10-23T09:22:26;15.70;99.90
9223;DHT22;7557;51.698;3.942;2022-10-23T09:24:54;15.70;99.90
9223;DHT22;7557;51.698;3.942;2022-10-23T09:27:22;15.70;99.90
9223;DHT22;7557;51.698;3.942;2022-10-23T09:29:52;15.70;99.90
9223;DHT22;7557;51.698;3.942;2022-10-23T09:32:32;15.80;99.90
9223;DHT22;7557;51.698;3.942;2022-10-23T09:34:59;15.70;99.90
9223;DHT22;7557;51.698;3.942;2022-10-23T09:37:28;15.70;99.90
9223;DHT22;7557;51.698;3.942;2022-10-23T09:40:14;15.80;99.90
9223;DHT22;7557;51.698;3.942;2022-10-23T09:42:57;15.80;99.90
9223;DHT22;7557;51.698;3.942;2022-10-23T09:45:29;15.80;99.90
9223;DHT22;7557;51.698;3.942;2022-10-23T09:48:10;15.90;99.90
9223;DHT22;7557;51.698;3.942;2022-10-23T09:50:48;15.90;99.90
9223;DHT22;7557;51.698;3.942;2022-10-23T09:53:17;15.90;99.90
9223;DHT22;7557;51.698;3.942;2022-10-23T09:55:51;15.90;99.90
9223;DHT22;7557;51.698;3.942;2022-10-23T09:58:31;16.00;99.90
9223;DHT22;7557;51.698;3.942;2022-10-23T10:01:00;16.00;99.90
9223;DHT22;7557;51.698;3.942;2022-10-23T10:03:28;16.10;99.90
9223;DHT22;7557;51.698;3.942;2022-10-23T10:05:57;16.10;99.90
9223;DHT22;7557;51.698;3.942;2022-10-23T10:08:31;16.10;99.90
9223;DHT22;7557;51.698;3.942;2022-10-23T10:11:05;16.10;99.90
9223;DHT22;7557;51.698;3.942;2022-10-23T10:16:41;16.10;99.90
9223;DHT22;7557;51.698;3.942;2022-10-23T10:19:22;16.10;99.90
9223;DHT22;7557;51.698;3.942;2022-10-23T10:21:58;16.10;99.90
9223;DHT22;7557;51.698;3.942;2022-10-23T10:24:33;16.10;99.90
9223;DHT22;7557;51.698;3.942;2022-10-23T10:27:06;16.20;99.90
9223;DHT22;7557;51.698;3.942;2022-10-23T10:29:44;16.20;99.90
9223;DHT22;7557;51.698;3.942;2022-10-23T10:32:24;16.20;99.90
9223;DHT22;7557;51.698;3.942;2022-10-23T10:35:03;16.30;99.90
9223;DHT22;7557;51.698;3.942;2022-10-23T10:37:45;16.30;99.90
9223;DHT22;7557;51.698;3.942;2022-10-23T10:40:20;16.40;99.90
9223;DHT22;7557;51.698;3.942;2022-10-23T10:43:01;16.40;99.90
9223;DHT22;7557;51.698;3.942;2022-10-23T10:45:36;16.50;99.90
9223;DHT22;7557;51.698;3.942;2022-10-23T10:48:28;16.50;99.90
9223;DHT22;7557;51.698;3.942;2022-10-23T10:51:01;16.60;99.90
9223;DHT22;7557;51.698;3.942;2022-10-23T10:53:37;16.60;99.90
9223;DHT22;7557;51.698;3.942;2022-10-23T10:56:11;16.60;99.90
9223;DHT22;7557;51.698;3.942;2022-10-23T10:58:42;16.70;99.90
9223;DHT22;7557;51.698;3.942;2022-10-23T11:01:15;16.70;99.90
9223;DHT22;7557;51.698;3.942;2022-10-23T11:03:51;16.80;99.90
9223;DHT22;7557;51.698;3.942;2022-10-23T11:06:20;16.80;99.90
9223;DHT22;7557;51.698;3.942;2022-10-23T11:08:49;16.90;99.90
9223;DHT22;7557;51.698;3.942;2022-10-23T11:11:18;17.00;99.90
9223;DHT22;7557;51.698;3.942;2022-10-23T11:13:49;17.10;99.90
9223;DHT22;7557;51.698;3.942;2022-10-23T11:16:21;17.10;99.90
9223;DHT22;7557;51.698;3.942;2022-10-23T11:19:02;17.10;99.90
9223;DHT22;7557;51.698;3.942;2022-10-23T11:21:34;17.20;99.90
9223;DHT22;7557;51.698;3.942;2022-10-23T11:24:33;17.30;99.90
9223;DHT22;7557;51.698;3.942;2022-10-23T11:27:26;17.30;99.90
9223;DHT22;7557;51.698;3.942;2022-10-23T11:30:24;17.30;99.90
9223;DHT22;7557;51.698;3.942;2022-10-23T11:33:37;17.30;99.90
9223;DHT22;7557;51.698;3.942;2022-10-23T11:36:16;17.40;99.90
9223;DHT22;7557;51.698;3.942;2022-10-23T11:38:45;17.40;99.90
9223;DHT22;7557;51.698;3.942;2022-10-23T11:41:18;17.40;99.90
9223;DHT22;7557;51.698;3.942;2022-10-23T11:43:48;17.40;99.90
9223;DHT22;7557;51.698;3.942;2022-10-23T11:46:31;17.50;99.90
9223;DHT22;7557;51.698;3.942;2022-10-23T11:49:00;17.50;99.90
9223;DHT22;7557;51.698;3.942;2022-10-23T11:51:34;17.60;99.90
9223;DHT22;7557;51.698;3.942;2022-10-23T11:54:17;17.60;99.90
9223;DHT22;7557;51.698;3.942;2022-10-23T11:57:01;17.70;99.90
9223;DHT22;7557;51.698;3.942;2022-10-23T11:59:31;17.70;99.90
9223;DHT22;7557;51.698;3.942;2022-10-23T12:02:01;17.80;99.90
9223;DHT22;7557;51.698;3.942;2022-10-23T12:04:38;17.80;99.90
9223;DHT22;7557;51.698;3.942;2022-10-23T12:07:16;17.90;99.90
9223;DHT22;7557;51.698;3.942;2022-10-23T12:09:52;17.90;99.90
9223;DHT22;7557;51.698;3.942;2022-10-23T12:12:31;18.00;99.90
9223;DHT22;7557;51.698;3.942;2022-10-23T12:15:20;18.00;99.90
9223;DHT22;7557;51.698;3.942;2022-10-23T12:17:49;18.00;99.90
9223;DHT22;7557;51.698;3.942;2022-10-23T12:20:23;18.10;99.90
9223;DHT22;7557;51.698;3.942;2022-10-23T12:23:05;18.10;99.90
9223;DHT22;7557;51.698;3.942;2022-10-23T12:25:41;18.10;99.90
9223;DHT22;7557;51.698;3.942;2022-10-23T12:28:20;18.20;99.90
9223;DHT22;7557;51.698;3.942;2022-10-23T12:30:58;18.30;99.90
9223;DHT22;7557;51.698;3.942;2022-10-23T12:33:31;18.30;99.90
9223;DHT22;7557;51.698;3.942;2022-10-23T12:36:14;18.30;99.90
9223;DHT22;7557;51.698;3.942;2022-10-23T12:38:46;18.40;99.90
9223;DHT22;7557;51.698;3.942;2022-10-23T12:41:16;18.40;99.90
9223;DHT22;7557;51.698;3.942;2022-10-23T12:43:50;18.40;99.90
9223;DHT22;7557;51.698;3.942;2022-10-23T12:46:29;18.50;99.90
9223;DHT22;7557;51.698;3.942;2022-10-23T12:48:59;18.50;99.90
9223;DHT22;7557;51.698;3.942;2022-10-23T12:51:28;18.50;99.90
9223;DHT22;7557;51.698;3.942;2022-10-23T12:53:57;18.50;99.90
9223;DHT22;7557;51.698;3.942;2022-10-23T12:56:25;18.60;99.90
9223;DHT22;7557;51.698;3.942;2022-10-23T12:58:54;18.60;99.90
9223;DHT22;7557;51.698;3.942;2022-10-23T13:01:24;18.60;99.90
9223;DHT22;7557;51.698;3.942;2022-10-23T13:03:56;18.70;99.90
9223;DHT22;7557;51.698;3.942;2022-10-23T13:06:25;18.80;99.90
9223;DHT22;7557;51.698;3.942;2022-10-23T13:08:53;18.70;99.90
9223;DHT22;7557;51.698;3.942;2022-10-23T13:11:23;18.80;99.90
9223;DHT22;7557;51.698;3.942;2022-10-23T13:13:51;18.80;99.90
9223;DHT22;7557;51.698;3.942;2022-10-23T13:16:21;18.80;99.90
9223;DHT22;7557;51.698;3.942;2022-10-23T13:18:48;18.90;99.90
9223;DHT22;7557;51.698;3.942;2022-10-23T13:21:19;18.90;99.90
9223;DHT22;7557;51.698;3.942;2022-10-23T13:23:46;18.90;99.90
9223;DHT22;7557;51.698;3.942;2022-10-23T13:26:24;19.00;99.90
9223;DHT22;7557;51.698;3.942;2022-10-23T13:28:54;19.00;99.90
9223;DHT22;7557;51.698;3.942;2022-10-23T13:31:30;19.00;99.90
9223;DHT22;7557;51.698;3.942;2022-10-23T13:34:23;19.00;99.90
9223;DHT22;7557;51.698;3.942;2022-10-23T13:37:02;19.10;99.90
9223;DHT22;7557;51.698;3.942;2022-10-23T13:39:31;19.20;99.90
9223;DHT22;7557;51.698;3.942;2022-10-23T13:42:09;19.20;99.90
9223;DHT22;7557;51.698;3.942;2022-10-23T13:44:38;19.20;99.90
9223;DHT22;7557;51.698;3.942;2022-10-23T13:47:05;19.20;99.90
9223;DHT22;7557;51.698;3.942;2022-10-23T13:49:32;19.20;99.90
9223;DHT22;7557;51.698;3.942;2022-10-23T13:51:59;19.30;99.90
9223;DHT22;7557;51.698;3.942;2022-10-23T13:54:28;19.30;99.90
9223;DHT22;7557;51.698;3.942;2022-10-23T13:56:56;19.30;99.90
9223;DHT22;7557;51.698;3.942;2022-10-23T13:59:24;19.30;99.90
9223;DHT22;7557;51.698;3.942;2022-10-23T14:01:51;19.30;99.90
9223;DHT22;7557;51.698;3.942;2022-10-23T14:04:19;19.30;99.90
9223;DHT22;7557;51.698;3.942;2022-10-23T14:06:46;19.30;99.90
9223;DHT22;7557;51.698;3.942;2022-10-23T14:09:15;19.30;99.90
9223;DHT22;7557;51.698;3.942;2022-10-23T14:11:45;19.30;99.90
9223;DHT22;7557;51.698;3.942;2022-10-23T14:14:12;19.30;99.90
9223;DHT22;7557;51.698;3.942;2022-10-23T14:16:41;19.30;99.90
9223;DHT22;7557;51.698;3.942;2022-10-23T14:19:08;19.30;99.90
9223;DHT22;7557;51.698;3.942;2022-10-23T14:21:36;19.30;99.90
9223;DHT22;7557;51.698;3.942;2022-10-23T14:24:03;19.20;99.90
9223;DHT22;7557;51.698;3.942;2022-10-23T14:26:30;19.30;99.90
9223;DHT22;7557;51.698;3.942;2022-10-23T14:28:59;19.20;99.90
9223;DHT22;7557;51.698;3.942;2022-10-23T14:31:26;19.10;99.90
9223;DHT22;7557;51.698;3.942;2022-10-23T14:33:56;19.10;99.90
9223;DHT22;7557;51.698;3.942;2022-10-23T14:36:25;19.10;99.90
9223;DHT22;7557;51.698;3.942;2022-10-23T14:38:54;19.10;99.90
9223;DHT22;7557;51.698;3.942;2022-10-23T14:41:21;19.00;99.90
9223;DHT22;7557;51.698;3.942;2022-10-23T14:43:49;19.00;99.90
9223;DHT22;7557;51.698;3.942;2022-10-23T14:46:18;19.00;99.90
9223;DHT22;7557;51.698;3.942;2022-10-23T14:48:45;19.00;99.90
9223;DHT22;7557;51.698;3.942;2022-10-23T14:51:19;18.90;99.90
9223;DHT22;7557;51.698;3.942;2022-10-23T14:53:54;18.90;99.90
9223;DHT22;7557;51.698;3.942;2022-10-23T14:56:21;18.90;99.90
9223;DHT22;7557;51.698;3.942;2022-10-23T14:58:49;18.90;99.90
9223;DHT22;7557;51.698;3.942;2022-10-23T15:01:17;18.90;99.90
9223;DHT22;7557;51.698;3.942;2022-10-23T15:03:44;18.80;99.90
9223;DHT22;7557;51.698;3.942;2022-10-23T15:06:13;18.90;99.90
9223;DHT22;7557;51.698;3.942;2022-10-23T15:08:41;18.90;99.90
9223;DHT22;7557;51.698;3.942;2022-10-23T15:11:09;18.90;99.90
9223;DHT22;7557;51.698;3.942;2022-10-23T15:13:36;18.90;99.90
9223;DHT22;7557;51.698;3.942;2022-10-23T15:16:05;18.90;99.90
9223;DHT22;7557;51.698;3.942;2022-10-23T15:18:33;18.90;99.90
9223;DHT22;7557;51.698;3.942;2022-10-23T15:21:02;18.90;99.90
9223;DHT22;7557;51.698;3.942;2022-10-23T15:23:30;18.90;99.90
9223;DHT22;7557;51.698;3.942;2022-10-23T15:26:03;18.90;99.90
9223;DHT22;7557;51.698;3.942;2022-10-23T15:28:31;18.90;99.90
9223;DHT22;7557;51.698;3.942;2022-10-23T15:30:59;19.00;99.90
9223;DHT22;7557;51.698;3.942;2022-10-23T15:33:26;19.00;99.90
9223;DHT22;7557;51.698;3.942;2022-10-23T15:35:54;19.00;99.90
9223;DHT22;7557;51.698;3.942;2022-10-23T15:38:22;19.10;99.90
9223;DHT22;7557;51.698;3.942;2022-10-23T15:40:53;19.10;99.90
9223;DHT22;7557;51.698;3.942;2022-10-23T15:43:26;19.10;99.90
9223;DHT22;7557;51.698;3.942;2022-10-23T15:45:53;19.10;99.90
9223;DHT22;7557;51.698;3.942;2022-10-23T15:48:20;19.10;99.90
9223;DHT22;7557;51.698;3.942;2022-10-23T15:50:47;19.10;99.90
9223;DHT22;7557;51.698;3.942;2022-10-23T15:53:15;19.20;99.90
9223;DHT22;7557;51.698;3.942;2022-10-23T15:55:42;19.20;99.90
9223;DHT22;7557;51.698;3.942;2022-10-23T15:58:09;19.10;99.90
9223;DHT22;7557;51.698;3.942;2022-10-23T16:00:38;19.10;99.90
9223;DHT22;7557;51.698;3.942;2022-10-23T16:03:05;19.10;99.90
9223;DHT22;7557;51.698;3.942;2022-10-23T16:05:32;19.10;99.90
9223;DHT22;7557;51.698;3.942;2022-10-23T16:08:02;19.10;99.90
9223;DHT22;7557;51.698;3.942;2022-10-23T16:10:30;19.10;99.90
9223;DHT22;7557;51.698;3.942;2022-10-23T16:12:57;19.10;99.90
9223;DHT22;7557;51.698;3.942;2022-10-23T16:15:25;19.00;99.90
9223;DHT22;7557;51.698;3.942;2022-10-23T16:17:53;19.00;99.90
9223;DHT22;7557;51.698;3.942;2022-10-23T16:20:20;18.90;99.90
9223;DHT22;7557;51.698;3.942;2022-10-23T16:22:48;18.90;99.90
9223;DHT22;7557;51.698;3.942;2022-10-23T16:25:15;18.90;99.90
9223;DHT22;7557;51.698;3.942;2022-10-23T16:27:42;18.90;99.90
9223;DHT22;7557;51.698;3.942;2022-10-23T16:30:10;18.90;99.90
9223;DHT22;7557;51.698;3.942;2022-10-23T16:32:38;18.90;99.90